EWG5AE EDDC-EDDL
Flight info
| Callsign | EWG5AE |
|---|---|
| Flight time | N/A |
| Altitude | 24000 |
| Route | BEBEX7E BEBEX Q230 WRB/N0373F200 T854 DOMUX DOMUX1A |
| Aircraft | A21N/M-SDE3FGHIRWY/LB1 |
Departure
| Time | 2026-04-29 08:18 |
|---|---|
| Airport | Dresden Airport (EDDC) |
Arrival
| Time | N/A |
|---|---|
| Airport | Düsseldorf Airport (EDDL) |
| Time | Latitude | Longitude | Altitude | Speed | Heading |
|---|---|---|---|---|---|
| 2026-04-29 07:46 | 51.12596 | 13.76607 | 763 ft | 0 kts | 220° |
| 2026-04-29 08:09 | 51.12605 | 13.76618 | 763 ft | 2 kts | 217° |
| 2026-04-29 08:10 | 51.12617 | 13.76634 | 763 ft | 2 kts | 221° |
| 2026-04-29 08:10 | 51.12629 | 13.76649 | 763 ft | 2 kts | 219° |
| 2026-04-29 08:10 | 51.12639 | 13.76666 | 763 ft | 2 kts | 242° |
| 2026-04-29 08:10 | 51.12645 | 13.76689 | 763 ft | 2 kts | 259° |
| 2026-04-29 08:11 | 51.12645 | 13.76712 | 763 ft | 2 kts | 279° |
| 2026-04-29 08:11 | 51.12640 | 13.76735 | 763 ft | 2 kts | 299° |
| 2026-04-29 08:11 | 51.12636 | 13.76747 | 763 ft | 1 kts | 310° |
| 2026-04-29 08:11 | 51.12632 | 13.76754 | 763 ft | 0 kts | 311° |
| 2026-04-29 08:13 | 51.12637 | 13.76743 | 763 ft | 3 kts | 312° |
| 2026-04-29 08:13 | 51.12666 | 13.76689 | 763 ft | 8 kts | 310° |
| 2026-04-29 08:13 | 51.12713 | 13.76601 | 763 ft | 12 kts | 311° |
| 2026-04-29 08:14 | 51.12770 | 13.76496 | 763 ft | 12 kts | 310° |
| 2026-04-29 08:14 | 51.12775 | 13.76373 | 763 ft | 12 kts | 227° |
| 2026-04-29 08:14 | 51.12706 | 13.76277 | 763 ft | 13 kts | 221° |
| 2026-04-29 08:14 | 51.12634 | 13.76178 | 763 ft | 14 kts | 221° |
| 2026-04-29 08:15 | 51.12559 | 13.76073 | 763 ft | 14 kts | 221° |
| 2026-04-29 08:15 | 51.12483 | 13.75969 | 763 ft | 14 kts | 220° |
| 2026-04-29 08:15 | 51.12403 | 13.75860 | 763 ft | 15 kts | 221° |
| 2026-04-29 08:15 | 51.12382 | 13.75714 | 763 ft | 15 kts | 291° |
| 2026-04-29 08:16 | 51.12397 | 13.75653 | 763 ft | 0 kts | 291° |
| 2026-04-29 08:16 | 51.12398 | 13.75649 | 763 ft | 1 kts | 291° |
| 2026-04-29 08:16 | 51.12412 | 13.75602 | 763 ft | 10 kts | 300° |
| 2026-04-29 08:16 | 51.12479 | 13.75507 | 763 ft | 13 kts | 1° |
| 2026-04-29 08:17 | 51.12523 | 13.75546 | 763 ft | 1 kts | 40° |
| 2026-04-29 08:17 | 51.12727 | 13.75829 | 763 ft | 79 kts | 41° |
| 2026-04-29 08:17 | 51.13332 | 13.76655 | 764 ft | 146 kts | 40° |
| 2026-04-29 08:17 | 51.14159 | 13.77770 | 1227 ft | 161 kts | 44° |
| 2026-04-29 08:18 | 51.14949 | 13.78930 | 2107 ft | 155 kts | 45° |
| 2026-04-29 08:18 | 51.15748 | 13.80083 | 2823 ft | 160 kts | 45° |
| 2026-04-29 08:18 | 51.16605 | 13.81294 | 3304 ft | 176 kts | 43° |
| 2026-04-29 08:18 | 51.17568 | 13.82627 | 3790 ft | 192 kts | 42° |
| 2026-04-29 08:19 | 51.18617 | 13.84068 | 4242 ft | 212 kts | 41° |
| 2026-04-29 08:19 | 51.19830 | 13.85632 | 4692 ft | 234 kts | 33° |
| 2026-04-29 08:19 | 51.21435 | 13.86387 | 5305 ft | 253 kts | 3° |
| 2026-04-29 08:19 | 51.23159 | 13.85774 | 6211 ft | 262 kts | 338° |
| 2026-04-29 08:20 | 51.24783 | 13.84540 | 7159 ft | 261 kts | 344° |
| 2026-04-29 08:20 | 51.26540 | 13.83995 | 8058 ft | 261 kts | 354° |
| 2026-04-29 08:20 | 51.28317 | 13.83595 | 8940 ft | 263 kts | 353° |
| 2026-04-29 08:20 | 51.30053 | 13.82648 | 9773 ft | 271 kts | 330° |
| 2026-04-29 08:21 | 51.31411 | 13.80581 | 10615 ft | 279 kts | 307° |
| 2026-04-29 08:21 | 51.32167 | 13.77654 | 11203 ft | 299 kts | 284° |
| 2026-04-29 08:21 | 51.32380 | 13.74264 | 11636 ft | 317 kts | 278° |
| 2026-04-29 08:21 | 51.32565 | 13.70676 | 12140 ft | 331 kts | 278° |
| 2026-04-29 08:22 | 51.32758 | 13.67003 | 12892 ft | 335 kts | 279° |
| 2026-04-29 08:22 | 51.32956 | 13.63333 | 13694 ft | 337 kts | 279° |
| 2026-04-29 08:22 | 51.33163 | 13.59574 | 14472 ft | 340 kts | 279° |
| 2026-04-29 08:22 | 51.33371 | 13.55838 | 15201 ft | 343 kts | 279° |
| 2026-04-29 08:23 | 51.33584 | 13.52008 | 15908 ft | 347 kts | 280° |
| 2026-04-29 08:23 | 51.33798 | 13.48187 | 16586 ft | 351 kts | 280° |
| 2026-04-29 08:23 | 51.34015 | 13.44289 | 17265 ft | 355 kts | 280° |
| 2026-04-29 08:23 | 51.34235 | 13.40332 | 17931 ft | 358 kts | 280° |
| 2026-04-29 08:24 | 51.34453 | 13.36378 | 18576 ft | 362 kts | 280° |
| 2026-04-29 08:24 | 51.34673 | 13.32376 | 19188 ft | 366 kts | 279° |
| 2026-04-29 08:24 | 51.34897 | 13.28295 | 19800 ft | 370 kts | 279° |
| 2026-04-29 08:24 | 51.35119 | 13.24205 | 20414 ft | 373 kts | 279° |
| 2026-04-29 08:25 | 51.35378 | 13.20054 | 21012 ft | 375 kts | 282° |
| 2026-04-29 08:25 | 51.35786 | 13.15978 | 21575 ft | 377 kts | 285° |
| 2026-04-29 08:25 | 51.36274 | 13.11863 | 22138 ft | 380 kts | 285° |
| 2026-04-29 08:25 | 51.36778 | 13.07691 | 22694 ft | 383 kts | 285° |
| 2026-04-29 08:26 | 51.37285 | 13.03491 | 23221 ft | 387 kts | 285° |
| 2026-04-29 08:26 | 51.37791 | 12.99268 | 23744 ft | 390 kts | 285° |
| 2026-04-29 08:26 | 51.38301 | 12.94989 | 24210 ft | 394 kts | 285° |
| 2026-04-29 08:26 | 51.38803 | 12.90742 | 24360 ft | 396 kts | 285° |
| 2026-04-29 08:27 | 51.39316 | 12.86385 | 24363 ft | 395 kts | 285° |
| 2026-04-29 08:27 | 51.39820 | 12.82092 | 24367 ft | 394 kts | 285° |
| 2026-04-29 08:27 | 51.40326 | 12.77797 | 24364 ft | 394 kts | 285° |
| 2026-04-29 08:27 | 51.40829 | 12.73503 | 24362 ft | 394 kts | 285° |
| 2026-04-29 08:28 | 51.41334 | 12.69181 | 24365 ft | 395 kts | 285° |
| 2026-04-29 08:28 | 51.41837 | 12.64858 | 24360 ft | 395 kts | 285° |
| 2026-04-29 08:28 | 51.42333 | 12.60581 | 24360 ft | 395 kts | 285° |
| 2026-04-29 08:28 | 51.42810 | 12.56212 | 24358 ft | 397 kts | 283° |
| 2026-04-29 08:29 | 51.43132 | 12.51841 | 24363 ft | 400 kts | 280° |
| 2026-04-29 08:29 | 51.43344 | 12.47413 | 24366 ft | 400 kts | 279° |
| 2026-04-29 08:29 | 51.43538 | 12.42970 | 24366 ft | 400 kts | 279° |
| 2026-04-29 08:29 | 51.43726 | 12.38570 | 24365 ft | 400 kts | 279° |
| 2026-04-29 08:30 | 51.43918 | 12.34077 | 24366 ft | 400 kts | 278° |
| 2026-04-29 08:30 | 51.44294 | 12.25260 | 24371 ft | 399 kts | 278° |
| 2026-04-29 08:30 | 51.44482 | 12.20780 | 24371 ft | 399 kts | 278° |
| 2026-04-29 08:31 | 51.44667 | 12.16363 | 24371 ft | 399 kts | 278° |
| 2026-04-29 08:31 | 51.44849 | 12.11960 | 24366 ft | 399 kts | 278° |
| 2026-04-29 08:31 | 51.45032 | 12.07491 | 24369 ft | 400 kts | 278° |
| 2026-04-29 08:31 | 51.45213 | 12.03054 | 24367 ft | 401 kts | 278° |
| 2026-04-29 08:32 | 51.45391 | 11.98650 | 24364 ft | 401 kts | 278° |
| 2026-04-29 08:32 | 51.45569 | 11.94189 | 24365 ft | 402 kts | 278° |
| 2026-04-29 08:32 | 51.45745 | 11.89725 | 24361 ft | 402 kts | 278° |
| 2026-04-29 08:32 | 51.45919 | 11.85279 | 24358 ft | 402 kts | 278° |
| 2026-04-29 08:33 | 51.46095 | 11.80763 | 24361 ft | 402 kts | 278° |
| 2026-04-29 08:33 | 51.46266 | 11.76350 | 24360 ft | 402 kts | 278° |
| 2026-04-29 08:33 | 51.46435 | 11.71880 | 24358 ft | 402 kts | 278° |
| 2026-04-29 08:33 | 51.46604 | 11.67411 | 24358 ft | 403 kts | 278° |
| 2026-04-29 08:34 | 51.46770 | 11.62962 | 24359 ft | 403 kts | 278° |
| 2026-04-29 08:34 | 51.46936 | 11.58454 | 24357 ft | 404 kts | 278° |
| 2026-04-29 08:34 | 51.47099 | 11.54003 | 24360 ft | 404 kts | 278° |
| 2026-04-29 08:34 | 51.47261 | 11.49492 | 24357 ft | 404 kts | 278° |
| 2026-04-29 08:35 | 51.47421 | 11.45036 | 24357 ft | 404 kts | 278° |
| 2026-04-29 08:35 | 51.47582 | 11.40513 | 24357 ft | 405 kts | 278° |
| 2026-04-29 08:35 | 51.47738 | 11.36059 | 24354 ft | 404 kts | 278° |
| 2026-04-29 08:35 | 51.47893 | 11.31548 | 24354 ft | 405 kts | 278° |
| 2026-04-29 08:36 | 51.48047 | 11.27053 | 24355 ft | 406 kts | 278° |
| 2026-04-29 08:36 | 51.48198 | 11.22561 | 24360 ft | 406 kts | 278° |
| 2026-04-29 08:36 | 51.48350 | 11.18032 | 24359 ft | 406 kts | 278° |
| 2026-04-29 08:36 | 51.48497 | 11.13562 | 24356 ft | 406 kts | 278° |
| 2026-04-29 08:37 | 51.48701 | 11.09045 | 24357 ft | 405 kts | 281° |
| 2026-04-29 08:37 | 51.49066 | 11.04631 | 24356 ft | 403 kts | 284° |
| 2026-04-29 08:37 | 51.49559 | 11.00210 | 24359 ft | 402 kts | 285° |
| 2026-04-29 08:37 | 51.50073 | 10.95792 | 24350 ft | 402 kts | 285° |
| 2026-04-29 08:38 | 51.50585 | 10.91395 | 24345 ft | 402 kts | 286° |
| 2026-04-29 08:38 | 51.51089 | 10.87011 | 24347 ft | 403 kts | 286° |
| 2026-04-29 08:38 | 51.51596 | 10.82587 | 24346 ft | 403 kts | 286° |
| 2026-04-29 08:38 | 51.52096 | 10.78185 | 24353 ft | 404 kts | 286° |
| 2026-04-29 08:39 | 51.52597 | 10.73745 | 24356 ft | 404 kts | 286° |
| 2026-04-29 08:39 | 51.53091 | 10.69366 | 24359 ft | 405 kts | 286° |
| 2026-04-29 08:39 | 51.53485 | 10.64867 | 24352 ft | 408 kts | 281° |
| 2026-04-29 08:39 | 51.53672 | 10.60331 | 24346 ft | 411 kts | 277° |
| 2026-04-29 08:40 | 51.53661 | 10.55747 | 24339 ft | 413 kts | 274° |
| 2026-04-29 08:40 | 51.53591 | 10.51120 | 24336 ft | 414 kts | 274° |
| 2026-04-29 08:40 | 51.53509 | 10.46503 | 24332 ft | 415 kts | 274° |
| 2026-04-29 08:40 | 51.53429 | 10.41920 | 24334 ft | 414 kts | 274° |
| 2026-04-29 08:41 | 51.53348 | 10.37303 | 24332 ft | 415 kts | 274° |
| 2026-04-29 08:41 | 51.53268 | 10.32667 | 24338 ft | 415 kts | 273° |
| 2026-04-29 08:41 | 51.53187 | 10.28093 | 24331 ft | 415 kts | 273° |
| 2026-04-29 08:41 | 51.53107 | 10.23418 | 24339 ft | 415 kts | 273° |
| 2026-04-29 08:42 | 51.53025 | 10.18848 | 24328 ft | 415 kts | 273° |
| 2026-04-29 08:42 | 51.52941 | 10.14227 | 24332 ft | 416 kts | 273° |
| 2026-04-29 08:42 | 51.52855 | 10.09593 | 24335 ft | 415 kts | 273° |
| 2026-04-29 08:42 | 51.52766 | 10.04944 | 24330 ft | 416 kts | 273° |
| 2026-04-29 08:43 | 51.52677 | 10.00332 | 24335 ft | 415 kts | 273° |
| 2026-04-29 08:43 | 51.52587 | 9.95663 | 24328 ft | 414 kts | 273° |
| 2026-04-29 08:43 | 51.52492 | 9.91049 | 24329 ft | 415 kts | 273° |
| 2026-04-29 08:43 | 51.52398 | 9.86473 | 24337 ft | 416 kts | 273° |
| 2026-04-29 08:44 | 51.52300 | 9.81825 | 24337 ft | 416 kts | 273° |
| 2026-04-29 08:44 | 51.52199 | 9.77197 | 24338 ft | 417 kts | 273° |
| 2026-04-29 08:44 | 51.52099 | 9.72561 | 24338 ft | 416 kts | 273° |
| 2026-04-29 08:44 | 51.51993 | 9.67856 | 24330 ft | 416 kts | 273° |
| 2026-04-29 08:45 | 51.51889 | 9.63251 | 24336 ft | 417 kts | 273° |
| 2026-04-29 08:45 | 51.51781 | 9.58597 | 24343 ft | 417 kts | 273° |
| 2026-04-29 08:45 | 51.51672 | 9.53980 | 24342 ft | 417 kts | 273° |
| 2026-04-29 08:45 | 51.51561 | 9.49333 | 24343 ft | 417 kts | 272° |
| 2026-04-29 08:46 | 51.51447 | 9.44637 | 24352 ft | 417 kts | 273° |
| 2026-04-29 08:46 | 51.51331 | 9.40036 | 24347 ft | 417 kts | 272° |
| 2026-04-29 08:46 | 51.51214 | 9.35386 | 24349 ft | 418 kts | 272° |
| 2026-04-29 08:46 | 51.51096 | 9.30753 | 24349 ft | 418 kts | 272° |